Time;durP1;ratioP1;P1;durP2;ratioP2;P2;SDS_P1;SDS_P2;PMS_P1;PMS_P2;Temp;Humidity;BMP_temperature;BMP_pressure;BME280_temperature;BME280_humidity;BME280_pressure;Samples;Min_cycle;Max_cycle;Signal;HPM_P1;HPM_P2
2023/03/21 00:01:13;;;;;;;0.50;0.50;;;8.60;99.90;;;;;;5096418;28;20071;-81
2023/03/21 00:03:40;;;;;;;1.90;0.47;;;8.60;99.90;;;;;;5109717;27;20130;-80
2023/03/21 00:06:10;;;;;;;0.65;0.40;;;8.60;99.90;;;;;;5116740;27;20046;-80
2023/03/21 00:08:36;;;;;;;1.98;0.68;;;8.60;99.90;;;;;;5115975;27;20051;-80
2023/03/21 00:11:05;;;;;;;0.63;0.35;;;8.60;99.90;;;;;;5134760;27;20058;-80
2023/03/21 00:13:31;;;;;;;0.17;0.15;;;8.60;99.90;;;;;;5116176;27;20132;-80
2023/03/21 00:16:03;;;;;;;1.60;0.65;;;8.70;99.90;;;;;;5114898;27;20054;-80
2023/03/21 00:18:28;;;;;;;0.63;0.25;;;8.60;99.90;;;;;;5134172;27;20039;-81
2023/03/21 00:21:03;;;;;;;1.27;0.80;;;8.70;99.90;;;;;;5082782;27;20528;-81
2023/03/21 00:23:30;;;;;;;1.88;0.57;;;8.70;99.90;;;;;;5133962;27;20054;-81
2023/03/21 00:25:56;;;;;;;0.52;0.50;;;8.70;99.90;;;;;;5116288;27;20047;-80
2023/03/21 00:28:22;;;;;;;0.60;0.60;;;8.70;99.90;;;;;;5118340;27;20043;-81
2023/03/21 00:30:49;;;;;;;0.82;0.45;;;8.70;99.90;;;;;;5097899;27;20118;-81
2023/03/21 00:33:15;;;;;;;0.47;0.47;;;8.60;99.90;;;;;;5126484;27;20449;-80
2023/03/21 00:35:43;;;;;;;3.40;0.90;;;8.70;99.90;;;;;;5126279;27;20086;-81
2023/03/21 00:38:09;;;;;;;2.60;0.70;;;8.70;99.90;;;;;;5115989;27;20864;-80
2023/03/21 00:40:35;;;;;;;0.77;0.22;;;8.70;99.90;;;;;;5133619;27;20047;-81
2023/03/21 00:43:01;;;;;;;3.83;0.97;;;8.70;99.90;;;;;;5115918;27;20100;-80
2023/03/21 00:45:27;;;;;;;2.27;1.07;;;8.70;99.90;;;;;;5115096;27;20051;-80
2023/03/21 00:47:52;;;;;;;1.50;1.30;;;8.70;99.90;;;;;;5118368;27;20049;-80
2023/03/21 00:50:18;;;;;;;1.67;0.43;;;8.70;99.90;;;;;;5115949;27;20405;-81
2023/03/21 00:52:44;;;;;;;2.70;1.07;;;8.70;99.90;;;;;;5098253;27;20108;-80
2023/03/21 00:55:15;;;;;;;0.93;0.27;;;8.70;99.90;;;;;;5082072;27;20288;-81
2023/03/21 00:57:41;;;;;;;1.25;0.45;;;8.70;99.90;;;;;;5115190;27;20121;-81
2023/03/21 01:00:09;;;;;;;2.25;0.50;;;8.70;99.90;;;;;;5115931;27;20177;-80
2023/03/21 01:02:36;;;;;;;1.10;1.10;;;8.70;99.90;;;;;;5114476;27;20061;-81
2023/03/21 01:05:03;;;;;;;1.45;0.80;;;8.70;99.90;;;;;;5099105;27;20051;-81
2023/03/21 01:07:29;;;;;;;1.08;0.77;;;8.70;99.90;;;;;;5115351;27;20082;-81
2023/03/21 01:09:55;;;;;;;1.20;0.53;;;8.70;99.90;;;;;;5080619;27;20090;-81
2023/03/21 01:12:21;;;;;;;1.55;1.45;;;8.70;99.90;;;;;;5089996;28;20386;-80
2023/03/21 01:14:46;;;;;;;4.33;1.33;;;8.70;99.90;;;;;;5094289;28;20045;-81
2023/03/21 01:17:12;;;;;;;2.33;0.80;;;8.70;99.90;;;;;;5095206;28;20048;-81
2023/03/21 01:19:38;;;;;;;1.60;0.50;;;8.70;99.90;;;;;;5106344;27;20130;-82
2023/03/21 01:22:04;;;;;;;1.73;0.70;;;8.70;99.90;;;;;;5115541;27;20054;-81
2023/03/21 01:24:29;;;;;;;0.73;0.40;;;8.70;99.90;;;;;;5133324;27;20100;-80
2023/03/21 01:26:55;;;;;;;5.17;1.10;;;8.70;99.90;;;;;;5098011;28;20480;-81
2023/03/21 01:29:21;;;;;;;6.30;1.90;;;8.70;99.90;;;;;;5098064;28;20082;-80
2023/03/21 01:31:46;;;;;;;0.47;0.40;;;8.70;99.90;;;;;;5114761;28;20107;-81
2023/03/21 01:34:12;;;;;;;0.20;0.20;;;8.70;99.90;;;;;;5090356;28;20092;-80
2023/03/21 01:36:38;;;;;;;1.03;0.53;;;8.70;99.90;;;;;;5101099;28;20039;-84
2023/03/21 01:39:05;;;;;;;2.40;0.37;;;8.70;99.90;;;;;;5105792;28;20051;-81
2023/03/21 01:41:39;;;;;;;0.80;0.25;;;8.70;99.90;;;;;;5080745;28;20055;-80
2023/03/21 01:44:05;;;;;;;1.60;0.85;;;8.70;99.90;;;;;;5112829;28;20051;-81
2023/03/21 01:46:48;;;;;;;0.50;0.25;;;8.70;99.90;;;;;;5094867;28;20473;-81
2023/03/21 01:49:33;;;;;;;0.73;0.63;;;8.80;99.90;;;;;;5094701;28;20079;-80
2023/03/21 01:52:06;;;;;;;0.63;0.43;;;8.70;99.90;;;;;;5094550;28;20043;-80
2023/03/21 01:54:37;;;;;;;1.23;0.65;;;8.70;99.90;;;;;;5096353;28;20096;-81
2023/03/21 01:57:08;;;;;;;0.55;0.22;;;8.70;99.90;;;;;;5114753;28;20063;-81
2023/03/21 01:59:45;;;;;;;2.28;0.75;;;8.70;99.90;;;;;;5115220;28;20082;-81
2023/03/21 02:02:36;;;;;;;0.75;0.43;;;8.80;99.90;;;;;;5115122;28;20374;-80
2023/03/21 02:05:03;;;;;;;1.38;0.40;;;8.70;99.90;;;;;;5114604;28;20119;-80
2023/03/21 02:07:34;;;;;;;1.58;0.40;;;8.80;99.90;;;;;;5115185;28;20393;-81
2023/03/21 02:10:03;;;;;;;1.92;0.55;;;8.80;99.90;;;;;;5093595;28;20147;-81
2023/03/21 02:12:30;;;;;;;1.42;0.80;;;8.80;99.90;;;;;;5078192;28;20048;-80
2023/03/21 02:14:56;;;;;;;;;;;8.80;99.90;;;;;;5094381;28;20393;-80
2023/03/21 02:17:21;;;;;;;0.68;0.68;;;8.80;99.90;;;;;;5077771;28;19926;-80
2023/03/21 02:20:05;;;;;;;2.30;0.50;;;8.80;99.90;;;;;;5093965;28;20059;-81
2023/03/21 02:22:45;;;;;;;4.07;0.65;;;8.80;99.90;;;;;;5081877;27;20055;-81
2023/03/21 02:25:32;;;;;;;1.27;0.50;;;8.80;99.90;;;;;;5118537;27;20086;-80
2023/03/21 02:28:11;;;;;;;1.90;0.47;;;8.80;99.90;;;;;;5118104;27;20369;-81
2023/03/21 02:30:47;;;;;;;1.63;0.70;;;8.80;99.90;;;;;;5101301;28;20075;-80
2023/03/21 02:33:52;;;;;;;1.55;0.52;;;8.80;99.90;;;;;;5081061;28;20044;-81
2023/03/21 02:36:34;;;;;;;0.68;0.30;;;8.80;99.90;;;;;;5098569;28;20506;-80
2023/03/21 02:39:18;;;;;;;1.45;0.50;;;8.80;99.90;;;;;;5117063;27;20040;-81
2023/03/21 02:42:06;;;;;;;0.50;0.50;;;8.80;99.90;;;;;;5111828;27;20207;-82
2023/03/21 02:44:41;;;;;;;2.08;0.68;;;8.80;99.90;;;;;;5087159;27;20047;-81
2023/03/21 02:47:13;;;;;;;0.25;0.20;;;8.80;99.90;;;;;;5105424;28;20043;-81
2023/03/21 02:49:40;;;;;;;1.52;1.08;;;8.80;99.90;;;;;;5120078;27;20036;-81
2023/03/21 02:52:11;;;;;;;2.20;0.47;;;8.80;99.90;;;;;;5109025;27;20044;-81
2023/03/21 02:54:38;;;;;;;0.10;0.10;;;8.80;99.90;;;;;;5107944;27;20039;-82
2023/03/21 02:57:05;;;;;;;2.33;0.88;;;8.80;99.90;;;;;;5107178;27;20051;-81
2023/03/21 02:59:34;;;;;;;1.05;0.80;;;8.80;99.90;;;;;;5120437;27;20047;-81
2023/03/21 03:01:59;;;;;;;0.43;0.43;;;8.70;99.90;;;;;;5124825;27;20046;-82
2023/03/21 03:04:27;;;;;;;0.63;0.53;;;8.70;99.90;;;;;;5084369;28;20048;-82
2023/03/21 03:07:18;;;;;;;0.60;0.60;;;8.70;99.90;;;;;;5106742;28;20297;-82
2023/03/21 03:10:18;;;;;;;1.63;0.70;;;8.70;99.90;;;;;;5084687;28;20048;-82
2023/03/21 03:12:53;;;;;;;1.35;0.32;;;8.80;99.90;;;;;;5124218;27;20058;-82
2023/03/21 03:15:33;;;;;;;0.60;0.47;;;8.80;99.90;;;;;;5107643;28;20629;-82
2023/03/21 03:18:25;;;;;;;0.20;0.20;;;8.80;99.90;;;;;;5106518;27;20039;-81
2023/03/21 03:21:21;;;;;;;0.70;0.70;;;8.80;99.90;;;;;;5104890;27;20039;-86
2023/03/21 03:23:56;;;;;;;2.03;0.60;;;8.80;99.90;;;;;;5104800;27;20031;-81
2023/03/21 03:26:36;;;;;;;0.65;0.35;;;8.80;99.90;;;;;;5104198;28;20071;-83
2023/03/21 03:29:13;;;;;;;0.25;0.25;;;8.80;99.90;;;;;;5101079;28;20468;-81
2023/03/21 03:31:42;;;;;;;;;;;8.80;99.90;;;;;;5123675;27;20448;-81
2023/03/21 03:34:15;;;;;;;0.80;0.80;;;8.80;99.90;;;;;;5088635;27;19996;-83
2023/03/21 03:36:46;;;;;;;0.55;0.40;;;8.70;99.90;;;;;;5102379;27;20046;-81
2023/03/21 03:39:14;;;;;;;0.73;0.35;;;8.80;99.90;;;;;;5106302;27;20463;-83
2023/03/21 03:41:58;;;;;;;2.17;0.90;;;8.70;99.90;;;;;;5102288;27;20043;-82
2023/03/21 03:44:24;;;;;;;0.65;0.47;;;8.80;99.90;;;;;;5089822;27;20092;-81
2023/03/21 03:47:03;;;;;;;0.40;0.40;;;8.80;99.90;;;;;;5073481;27;20126;-81
2023/03/21 03:49:40;;;;;;;0.73;0.70;;;8.70;99.90;;;;;;5123377;27;20039;-82
2023/03/21 03:52:20;;;;;;;1.30;0.30;;;8.80;99.90;;;;;;5118015;27;20047;-83
2023/03/21 03:54:48;;;;;;;3.47;0.32;;;8.80;99.90;;;;;;5104128;28;20108;-83
2023/03/21 03:57:15;;;;;;;1.50;0.65;;;8.80;99.90;;;;;;5100617;27;20047;-81
2023/03/21 03:59:43;;;;;;;1.08;0.60;;;8.80;99.90;;;;;;5105737;27;20493;-81
2023/03/21 04:02:09;;;;;;;1.27;0.45;;;8.70;99.90;;;;;;5097933;28;20486;-82
2023/03/21 04:04:35;;;;;;;1.83;0.40;;;8.80;99.90;;;;;;5111238;28;20054;-82
2023/03/21 04:07:02;;;;;;;3.03;0.55;;;8.80;99.90;;;;;;5105791;27;20047;-82
2023/03/21 04:09:28;;;;;;;;;;;8.80;99.90;;;;;;5070166;27;20052;-82
2023/03/21 04:11:56;;;;;;;2.03;0.47;;;8.80;99.90;;;;;;5107373;27;19973;-82
2023/03/21 04:14:22;;;;;;;0.30;0.30;;;8.80;99.90;;;;;;5079365;28;20052;-81
2023/03/21 04:16:48;;;;;;;1.35;0.43;;;8.70;99.90;;;;;;5096197;28;20046;-81
2023/03/21 04:19:17;;;;;;;0.40;0.23;;;8.70;99.90;;;;;;5079317;28;20040;-81
2023/03/21 04:21:45;;;;;;;0.13;0.13;;;9.40;99.90;;;;;;5079750;28;20059;-81
2023/03/21 04:24:12;;;;;;;1.02;0.35;;;8.80;99.90;;;;;;5095457;28;20093;-82
2023/03/21 04:26:38;;;;;;;1.48;0.43;;;8.80;99.90;;;;;;5096030;28;20108;-83
2023/03/21 04:29:04;;;;;;;0.98;0.32;;;8.70;99.90;;;;;;5095259;28;20043;-82
2023/03/21 04:31:32;;;;;;;2.10;0.75;;;8.70;99.90;;;;;;5095761;28;20058;-82
2023/03/21 04:33:59;;;;;;;2.28;0.38;;;8.80;99.90;;;;;;5103719;27;20043;-81
2023/03/21 04:36:31;;;;;;;0.35;0.17;;;8.70;99.90;;;;;;5115648;27;20548;-81
2023/03/21 04:39:00;;;;;;;1.25;0.63;;;8.70;99.90;;;;;;5116215;27;20162;-81
2023/03/21 04:41:27;;;;;;;0.20;0.20;;;8.80;99.90;;;;;;5099537;27;20039;-81
2023/03/21 04:43:53;;;;;;;0.30;0.30;;;8.80;99.90;;;;;;5097297;27;20043;-81
2023/03/21 04:46:19;;;;;;;1.15;0.30;;;8.80;99.90;;;;;;5097917;27;20051;-81
2023/03/21 04:48:46;;;;;;;0.40;0.13;;;8.70;99.90;;;;;;5115870;27;20051;-81
2023/03/21 04:51:12;;;;;;;0.52;0.52;;;8.70;99.90;;;;;;5133638;27;20046;-81
2023/03/21 04:53:38;;;;;;;0.45;0.45;;;8.70;99.90;;;;;;5132714;27;20035;-83
2023/03/21 04:56:05;;;;;;;0.30;0.30;;;8.80;99.90;;;;;;5078110;28;20047;-86
2023/03/21 04:58:31;;;;;;;1.20;0.40;;;8.70;99.90;;;;;;5078576;28;20051;-81
2023/03/21 05:00:56;;;;;;;0.17;0.17;;;8.70;99.90;;;;;;5095561;28;20379;-81
2023/03/21 05:03:23;;;;;;;0.50;0.37;;;8.70;99.90;;;;;;5094772;28;20053;-81
2023/03/21 05:05:49;;;;;;;;;;;8.70;99.90;;;;;;5093649;27;20402;-81
2023/03/21 05:08:15;;;;;;;1.00;0.50;;;8.70;99.90;;;;;;5098086;27;19929;-81
2023/03/21 05:10:41;;;;;;;1.33;0.60;;;8.70;99.90;;;;;;5133381;27;20108;-81
2023/03/21 05:13:07;;;;;;;1.13;1.02;;;8.70;99.90;;;;;;5110882;27;20051;-83
2023/03/21 05:15:33;;;;;;;0.88;0.40;;;8.70;99.90;;;;;;5108573;27;20055;-82
2023/03/21 05:18:10;;;;;;;0.43;0.40;;;8.70;99.90;;;;;;5104762;28;20092;-81
2023/03/21 05:20:41;;;;;;;2.72;0.90;;;8.70;99.90;;;;;;5095309;28;20055;-81
2023/03/21 05:23:09;;;;;;;0.85;0.30;;;8.70;99.90;;;;;;5078424;28;20043;-86
2023/03/21 05:25:36;;;;;;;0.95;0.40;;;8.70;99.90;;;;;;5113829;28;20385;-81
2023/03/21 05:28:06;;;;;;;1.27;0.52;;;8.70;99.90;;;;;;5101773;28;20067;-81
2023/03/21 05:30:32;;;;;;;0.32;0.32;;;8.70;99.90;;;;;;5115649;28;20047;-81
2023/03/21 05:32:58;;;;;;;3.97;1.27;;;8.70;99.90;;;;;;5133537;28;20035;-81
2023/03/21 05:35:27;;;;;;;1.00;0.35;;;8.70;99.90;;;;;;5098250;28;20281;-81
2023/03/21 05:37:53;;;;;;;0.57;0.40;;;8.70;99.90;;;;;;5127690;28;20032;-81
2023/03/21 05:40:19;;;;;;;0.83;0.53;;;8.70;99.90;;;;;;5112312;28;20180;-81
2023/03/21 05:42:46;;;;;;;0.52;0.45;;;8.70;99.90;;;;;;5094805;28;20047;-81
2023/03/21 05:45:12;;;;;;;2.47;0.55;;;8.70;99.90;;;;;;5092962;28;20115;-81
2023/03/21 05:47:38;;;;;;;0.88;0.52;;;8.70;99.90;;;;;;5125637;28;20042;-81
2023/03/21 05:50:05;;;;;;;1.77;0.80;;;8.70;99.90;;;;;;5095304;28;20044;-81
2023/03/21 05:52:31;;;;;;;2.78;0.70;;;8.70;99.90;;;;;;5094090;28;20051;-81
2023/03/21 05:54:57;;;;;;;5.43;0.88;;;8.70;99.90;;;;;;5112724;28;20035;-81
2023/03/21 05:57:23;;;;;;;2.63;1.03;;;8.70;99.90;;;;;;5080687;28;20055;-81
2023/03/21 05:59:49;;;;;;;1.45;0.50;;;8.70;99.90;;;;;;5091601;28;20048;-81
2023/03/21 06:02:15;;;;;;;2.20;0.83;;;8.70;99.90;;;;;;5116029;27;20122;-82
2023/03/21 06:04:40;;;;;;;2.80;1.00;;;8.70;99.90;;;;;;5137366;27;20054;-81
2023/03/21 06:07:06;;;;;;;0.63;0.63;;;8.70;99.90;;;;;;5119115;27;20111;-81
2023/03/21 06:09:32;;;;;;;2.63;1.53;;;8.70;99.90;;;;;;5095614;27;20087;-81
2023/03/21 06:11:58;;;;;;;2.78;1.02;;;8.70;99.90;;;;;;5061053;28;20106;-81
2023/03/21 06:14:24;;;;;;;2.03;0.70;;;8.70;99.90;;;;;;5088446;28;20052;-81
2023/03/21 06:16:52;;;;;;;1.83;0.67;;;8.70;99.90;;;;;;5081474;28;20517;-81
2023/03/21 06:19:18;;;;;;;0.75;0.70;;;8.70;99.90;;;;;;5094933;28;20492;-83
2023/03/21 06:21:44;;;;;;;1.73;0.57;;;8.70;99.90;;;;;;5090366;28;20040;-82
2023/03/21 06:24:10;;;;;;;0.90;0.67;;;8.70;99.90;;;;;;5098529;28;20043;-82
2023/03/21 06:26:36;;;;;;;0.77;0.23;;;8.70;99.90;;;;;;5097737;28;20706;-81
2023/03/21 06:29:02;;;;;;;1.60;0.77;;;8.70;99.90;;;;;;5097735;28;20044;-81
2023/03/21 06:31:28;;;;;;;2.67;0.95;;;8.70;99.90;;;;;;5095795;28;20043;-81
2023/03/21 06:33:57;;;;;;;0.47;0.27;;;8.70;99.90;;;;;;5098406;28;20504;-81
2023/03/21 06:36:22;;;;;;;1.05;0.73;;;8.70;99.90;;;;;;5097371;28;20044;-81
2023/03/21 06:38:48;;;;;;;1.37;0.40;;;8.70;99.90;;;;;;5116178;28;20047;-81
2023/03/21 06:41:15;;;;;;;2.00;0.40;;;8.70;99.90;;;;;;5075590;28;20036;-81
2023/03/21 06:43:41;;;;;;;0.60;0.50;;;8.70;99.90;;;;;;5095570;28;20040;-82
2023/03/21 06:46:07;;;;;;;0.50;0.45;;;8.70;99.90;;;;;;5044633;28;20584;-82
2023/03/21 06:48:33;;;;;;;2.20;1.27;;;8.70;99.90;;;;;;5078254;28;20114;-81
2023/03/21 06:51:03;;;;;;;1.20;0.67;;;8.70;99.90;;;;;;5101129;27;20076;-79
2023/03/21 06:53:30;;;;;;;2.00;0.52;;;8.80;99.90;;;;;;5076857;28;20127;-80
2023/03/21 06:55:56;;;;;;;3.05;0.77;;;8.70;99.90;;;;;;5083210;28;20487;-80
2023/03/21 06:58:23;;;;;;;1.43;0.70;;;8.70;99.90;;;;;;5097160;28;20051;-81
2023/03/21 07:00:49;;;;;;;1.35;0.77;;;8.80;99.90;;;;;;5118938;28;20056;-80
2023/03/21 07:03:15;;;;;;;0.50;0.30;;;8.80;99.90;;;;;;5086911;28;20047;-80
2023/03/21 07:05:41;;;;;;;1.85;0.30;;;8.80;99.90;;;;;;5110075;28;20051;-81
2023/03/21 07:08:12;;;;;;;1.05;0.95;;;8.80;99.90;;;;;;5096375;28;20047;-81
2023/03/21 07:10:43;;;;;;;1.13;0.60;;;8.80;99.90;;;;;;5067729;27;20567;-81
2023/03/21 07:13:09;;;;;;;0.85;0.55;;;8.80;99.90;;;;;;5117655;27;20058;-81
2023/03/21 07:15:36;;;;;;;1.05;0.70;;;8.80;99.90;;;;;;5100212;27;20039;-80
2023/03/21 07:18:07;;;;;;;0.52;0.15;;;8.90;99.90;;;;;;5114242;28;20110;-81
2023/03/21 07:20:34;;;;;;;0.57;0.30;;;8.80;99.90;;;;;;5113169;27;20083;-84
2023/03/21 07:22:59;;;;;;;0.65;0.50;;;8.90;99.90;;;;;;5108523;27;20517;-81
2023/03/21 07:25:26;;;;;;;1.00;0.60;;;8.90;99.90;;;;;;5099948;27;20047;-82
2023/03/21 07:27:52;;;;;;;;;;;8.90;99.90;;;;;;5111993;27;20051;-81
2023/03/21 07:30:18;;;;;;;0.40;0.25;;;8.90;99.90;;;;;;5100367;27;19919;-81
2023/03/21 07:32:44;;;;;;;0.38;0.32;;;9.00;99.90;;;;;;5116980;27;20051;-84
2023/03/21 07:35:12;;;;;;;1.05;0.30;;;9.00;99.90;;;;;;5113974;27;20039;-84
2023/03/21 07:37:39;;;;;;;0.32;0.32;;;8.90;99.90;;;;;;5091808;27;20039;-82
2023/03/21 07:40:09;;;;;;;0.57;0.50;;;9.00;99.90;;;;;;5105725;28;20048;-82
2023/03/21 07:42:38;;;;;;;0.50;0.50;;;9.00;99.90;;;;;;5107064;27;20177;-85
2023/03/21 07:45:04;;;;;;;0.40;0.32;;;9.00;99.90;;;;;;5104088;27;20049;-84
2023/03/21 07:47:30;;;;;;;1.73;0.60;;;9.00;99.90;;;;;;5123697;27;20043;-84
2023/03/21 07:49:56;;;;;;;0.70;0.32;;;8.90;99.90;;;;;;5106725;27;20059;-84
2023/03/21 07:52:22;;;;;;;2.90;1.23;;;9.00;99.90;;;;;;5086688;27;20401;-85
2023/03/21 07:54:48;;;;;;;0.23;0.20;;;8.90;99.90;;;;;;5111055;27;20035;-85
2023/03/21 07:57:13;;;;;;;0.50;0.33;;;9.00;99.90;;;;;;5124063;27;20047;-84
2023/03/21 07:59:39;;;;;;;0.33;0.33;;;9.00;99.90;;;;;;5104005;27;20040;-85
2023/03/21 08:02:06;;;;;;;0.63;0.53;;;9.00;99.90;;;;;;5122484;27;20439;-85
2023/03/21 08:04:33;;;;;;;1.52;0.65;;;9.00;99.90;;;;;;5085095;27;20069;-84
2023/03/21 08:06:59;;;;;;;0.80;0.60;;;9.00;99.90;;;;;;5106790;27;20152;-85
2023/03/21 08:09:28;;;;;;;0.27;0.27;;;9.00;99.90;;;;;;5084539;27;20047;-85
2023/03/21 08:11:54;;;;;;;0.50;0.43;;;9.00;99.90;;;;;;5070296;27;20043;-84
2023/03/21 08:14:20;;;;;;;;;;;9.00;99.90;;;;;;5090120;27;20100;-84
2023/03/21 08:16:46;;;;;;;0.60;0.35;;;9.00;99.90;;;;;;5107109;27;19923;-85
2023/03/21 08:19:12;;;;;;;0.93;0.50;;;9.00;99.90;;;;;;5105638;27;20075;-84
2023/03/21 08:21:38;;;;;;;2.80;0.70;;;9.00;99.90;;;;;;5103113;27;20070;-85
2023/03/21 08:24:05;;;;;;;0.57;0.35;;;9.10;99.90;;;;;;5107792;27;20043;-85
2023/03/21 08:26:32;;;;;;;0.98;0.77;;;9.10;99.90;;;;;;5087119;27;20479;-86
2023/03/21 08:28:59;;;;;;;0.90;0.57;;;9.10;99.90;;;;;;5101812;27;20121;-85
2023/03/21 08:31:27;;;;;;;1.45;1.00;;;9.10;99.90;;;;;;5105311;27;20035;-84
2023/03/21 08:33:54;;;;;;;0.60;0.25;;;9.10;99.90;;;;;;5051632;27;20055;-84
2023/03/21 08:36:21;;;;;;;0.68;0.35;;;9.10;99.90;;;;;;5079052;27;20046;-84
2023/03/21 08:38:47;;;;;;;0.73;0.40;;;9.10;99.90;;;;;;5100327;27;20485;-86
2023/03/21 08:41:14;;;;;;;0.53;0.53;;;9.10;99.90;;;;;;5091945;27;20046;-84
2023/03/21 08:43:39;;;;;;;;;;;9.10;99.90;;;;;;5085716;27;20043;-85
2023/03/21 08:46:05;;;;;;;1.13;0.47;;;9.10;99.90;;;;;;5107020;27;20383;-85
2023/03/21 08:48:31;;;;;;;2.45;0.43;;;9.10;99.90;;;;;;5088195;27;20354;-84
2023/03/21 08:50:59;;;;;;;1.13;0.67;;;9.20;99.90;;;;;;5092058;28;20051;-84
2023/03/21 08:53:25;;;;;;;0.47;0.47;;;9.20;99.90;;;;;;5119418;27;20212;-85
2023/03/21 08:55:51;;;;;;;0.97;0.97;;;9.20;99.90;;;;;;5120556;27;20453;-84
2023/03/21 08:58:16;;;;;;;1.43;0.73;;;9.20;99.90;;;;;;5109079;27;20120;-84
2023/03/21 09:00:42;;;;;;;1.47;0.80;;;9.20;99.90;;;;;;5123098;27;20074;-85
2023/03/21 09:03:08;;;;;;;2.03;0.30;;;9.20;99.90;;;;;;5121951;27;20043;-84
2023/03/21 09:05:35;;;;;;;2.47;0.67;;;9.30;99.90;;;;;;5086221;27;20051;-83
2023/03/21 09:08:02;;;;;;;0.50;0.50;;;9.20;99.90;;;;;;5085146;28;20046;-84
2023/03/21 09:10:28;;;;;;;0.40;0.30;;;9.20;99.90;;;;;;5088966;28;20051;-80
2023/03/21 09:12:56;;;;;;;0.88;0.70;;;9.30;99.90;;;;;;5084508;28;20051;-83
2023/03/21 09:15:27;;;;;;;2.80;0.90;;;10.30;99.90;;;;;;5100661;28;20036;-85
2023/03/21 09:17:55;;;;;;;1.48;0.90;;;9.20;99.90;;;;;;5102251;27;20118;-82
2023/03/21 09:20:31;;;;;;;3.58;0.80;;;9.20;99.90;;;;;;5083563;28;20050;-83
2023/03/21 09:23:00;;;;;;;0.93;0.65;;;9.20;99.90;;;;;;5086637;28;20477;-83
2023/03/21 09:25:29;;;;;;;0.32;0.30;;;9.20;99.90;;;;;;5104562;28;20067;-82
2023/03/21 09:27:56;;;;;;;2.22;1.10;;;9.20;99.90;;;;;;5102661;28;20047;-82
2023/03/21 09:30:22;;;;;;;1.92;0.98;;;9.20;99.90;;;;;;5104859;28;20051;-82
2023/03/21 09:32:49;;;;;;;0.80;0.77;;;9.20;99.90;;;;;;5103690;28;20053;-82
2023/03/21 09:35:18;;;;;;;0.57;0.57;;;9.20;99.90;;;;;;5102693;28;20051;-82
2023/03/21 09:37:46;;;;;;;0.82;0.68;;;9.20;99.90;;;;;;5114940;28;20124;-82
2023/03/21 09:40:30;;;;;;;1.65;0.85;;;9.10;99.90;;;;;;5101502;28;20051;-83
2023/03/21 09:43:38;;;;;;;2.75;1.42;;;9.10;99.90;;;;;;5092283;28;20051;-84
2023/03/21 09:46:18;;;;;;;1.20;0.82;;;9.20;99.90;;;;;;5086541;28;20051;-82
2023/03/21 09:49:08;;;;;;;1.73;0.70;;;9.10;99.90;;;;;;5094664;28;20043;-84
2023/03/21 09:51:49;;;;;;;2.63;0.85;;;9.20;99.90;;;;;;5094636;28;20090;-81
2023/03/21 09:54:23;;;;;;;2.13;1.15;;;9.20;99.90;;;;;;5095415;28;20048;-85
2023/03/21 09:56:54;;;;;;;0.77;0.50;;;9.10;99.90;;;;;;5101353;28;20056;-82
2023/03/21 09:59:36;;;;;;;2.03;0.85;;;9.10;99.90;;;;;;5099386;28;20126;-82
2023/03/21 10:02:16;;;;;;;1.35;0.90;;;9.10;99.90;;;;;;5079556;28;20134;-83
2023/03/21 10:04:45;;;;;;;1.90;0.73;;;9.10;99.90;;;;;;5092491;28;20046;-82
2023/03/21 10:07:17;;;;;;;1.15;1.05;;;9.10;99.90;;;;;;5112859;28;20040;-82
2023/03/21 10:09:46;;;;;;;1.98;1.30;;;9.10;99.90;;;;;;5104774;28;20051;-82
2023/03/21 10:12:19;;;;;;;1.75;1.27;;;9.00;99.90;;;;;;5107123;28;20078;-81
2023/03/21 10:14:49;;;;;;;4.90;1.08;;;9.00;99.90;;;;;;5101632;28;20514;-84
2023/03/21 10:17:42;;;;;;;2.83;1.05;;;9.00;99.90;;;;;;5118018;28;20170;-82
2023/03/21 10:20:29;;;;;;;1.83;0.95;;;9.00;99.90;;;;;;5099810;28;20043;-83
2023/03/21 10:22:57;;;;;;;1.92;1.05;;;9.00;99.90;;;;;;5109670;28;20370;-85
2023/03/21 10:26:03;;;;;;;1.30;1.20;;;9.00;99.90;;;;;;5125078;28;20378;-84
2023/03/21 10:28:37;;;;;;;0.80;0.50;;;9.00;99.90;;;;;;5080727;28;20513;-83
2023/03/21 10:31:08;;;;;;;1.58;0.70;;;9.00;99.90;;;;;;5098073;28;20543;-83
2023/03/21 10:33:42;;;;;;;2.10;0.95;;;9.10;99.90;;;;;;5119693;28;20043;-84
2023/03/21 10:36:15;;;;;;;2.40;0.82;;;9.10;99.90;;;;;;5106279;28;20051;-83
2023/03/21 10:38:47;;;;;;;1.30;0.80;;;9.10;99.90;;;;;;5115089;28;20047;-84
2023/03/21 10:41:13;;;;;;;2.63;1.25;;;9.10;99.90;;;;;;5092355;28;20109;-84
2023/03/21 10:43:40;;;;;;;1.27;0.70;;;9.20;99.90;;;;;;5112083;27;20042;-84
2023/03/21 10:46:26;;;;;;;3.40;1.25;;;9.20;99.90;;;;;;5107081;27;20039;-85
2023/03/21 10:48:52;;;;;;;2.33;0.70;;;9.20;99.90;;;;;;5099659;28;20044;-84
2023/03/21 10:51:26;;;;;;;1.38;1.27;;;9.20;99.90;;;;;;5105051;27;20047;-84
2023/03/21 10:53:55;;;;;;;1.25;0.90;;;9.30;99.90;;;;;;5107173;27;20040;-84
2023/03/21 10:56:29;;;;;;;0.95;0.80;;;9.30;99.90;;;;;;5096405;27;20392;-83
2023/03/21 10:59:00;;;;;;;1.65;1.13;;;9.40;99.90;;;;;;5082370;27;20050;-87
2023/03/21 11:01:33;;;;;;;1.83;0.98;;;9.40;99.90;;;;;;5106867;27;20047;-83
2023/03/21 11:04:05;;;;;;;1.80;0.88;;;9.50;99.90;;;;;;5097561;28;20082;-83
2023/03/21 11:06:35;;;;;;;3.17;1.05;;;9.50;99.90;;;;;;5104825;28;20054;-82
2023/03/21 11:09:12;;;;;;;1.00;0.60;;;9.60;99.90;;;;;;5120626;27;20071;-83
2023/03/21 11:11:51;;;;;;;1.52;1.10;;;9.60;99.90;;;;;;5106646;27;20044;-84
2023/03/21 11:14:39;;;;;;;0.88;0.85;;;9.70;99.90;;;;;;5123055;27;20048;-82
2023/03/21 11:17:18;;;;;;;;;;;9.80;99.90;;;;;;5089087;27;20063;-84
2023/03/21 11:19:51;;;;;;;2.60;0.70;;;9.80;99.90;;;;;;5086246;27;19981;-84
2023/03/21 11:22:22;;;;;;;0.70;0.65;;;9.90;99.90;;;;;;5101898;28;20039;-83
2023/03/21 11:24:55;;;;;;;0.85;0.65;;;10.00;99.90;;;;;;5105860;28;20036;-86
2023/03/21 11:27:21;;;;;;;1.85;1.25;;;10.10;99.90;;;;;;5123127;27;20047;-86
2023/03/21 11:29:50;;;;;;;1.33;1.07;;;10.20;99.90;;;;;;5096544;27;20042;-83
2023/03/21 11:32:36;;;;;;;0.65;0.65;;;10.20;99.90;;;;;;5113754;27;20069;-83
2023/03/21 11:35:33;;;;;;;1.38;0.93;;;10.30;99.90;;;;;;5087490;28;20450;-83
2023/03/21 11:37:59;;;;;;;0.77;0.70;;;10.30;99.90;;;;;;5103389;28;20061;-83
2023/03/21 11:40:51;;;;;;;2.25;0.85;;;10.40;99.90;;;;;;5102478;28;20055;-82
2023/03/21 11:43:16;;;;;;;2.05;1.05;;;10.50;99.90;;;;;;5120534;28;20047;-82
2023/03/21 11:46:13;;;;;;;1.23;1.03;;;10.50;99.90;;;;;;5085042;28;20095;-82
2023/03/21 11:48:44;;;;;;;1.83;1.45;;;10.50;99.90;;;;;;5118446;28;20096;-80
2023/03/21 11:51:42;;;;;;;1.08;0.80;;;10.50;99.90;;;;;;5102731;27;20413;-83
2023/03/21 11:54:34;;;;;;;2.70;1.15;;;10.50;99.90;;;;;;5119035;28;20047;-83
2023/03/21 11:57:50;;;;;;;1.80;1.55;;;10.50;99.90;;;;;;5102340;28;20051;-84
2023/03/21 12:00:56;;;;;;;2.33;1.10;;;10.50;99.90;;;;;;5102230;28;20048;-83
2023/03/21 12:03:46;;;;;;;1.15;0.95;;;10.50;99.90;;;;;;5090224;27;20076;-82
2023/03/21 12:06:25;;;;;;;0.90;0.68;;;10.50;99.90;;;;;;5129878;27;20393;-85
2023/03/21 12:09:18;;;;;;;1.73;1.25;;;10.50;99.90;;;;;;5089823;27;20054;-88
2023/03/21 12:12:16;;;;;;;1.55;1.45;;;10.50;99.90;;;;;;5136753;27;20047;-91
2023/03/21 12:15:16;;;;;;;0.65;0.40;;;10.50;99.90;;;;;;5097996;28;20052;-86
2023/03/21 12:18:00;;;;;;;0.60;0.60;;;10.50;99.90;;;;;;5095279;28;20467;-87
2023/03/21 12:20:52;;;;;;;0.70;0.60;;;10.50;99.90;;;;;;5104116;28;20125;-85
2023/03/21 12:23:36;;;;;;;0.60;0.60;;;10.50;99.90;;;;;;5093506;28;20051;-87
2023/03/21 12:26:02;;;;;;;1.77;0.98;;;10.60;99.90;;;;;;5105249;27;20068;-86
2023/03/21 12:28:55;;;;;;;1.00;0.63;;;10.80;99.90;;;;;;5093315;28;20510;-87
2023/03/21 12:31:29;;;;;;;1.75;0.68;;;10.80;99.90;;;;;;5092921;28;20465;-87
2023/03/21 12:34:21;;;;;;;1.83;0.93;;;10.90;99.90;;;;;;5099068;28;20117;-88
2023/03/21 12:36:52;;;;;;;1.30;0.95;;;10.70;99.90;;;;;;5082284;28;20512;-85
2023/03/21 12:39:36;;;;;;;1.85;0.82;;;10.70;99.90;;;;;;5092023;27;20039;-86
2023/03/21 12:42:26;;;;;;;0.60;0.60;;;10.70;99.90;;;;;;5101422;28;20043;-86
2023/03/21 12:44:59;;;;;;;1.70;0.95;;;10.60;99.90;;;;;;5100523;27;20063;-87
2023/03/21 12:47:31;;;;;;;0.63;0.63;;;10.50;99.90;;;;;;5111264;27;20448;-86
2023/03/21 12:50:07;;;;;;;2.10;1.15;;;10.50;99.90;;;;;;5093625;28;20043;-88
2023/03/21 12:52:37;;;;;;;2.63;1.20;;;10.50;99.90;;;;;;5103986;28;20043;-87
2023/03/21 12:55:20;;;;;;;1.77;1.00;;;10.40;99.90;;;;;;5107014;27;20480;-87
2023/03/21 12:57:54;;;;;;;1.27;0.65;;;10.40;99.90;;;;;;5103680;28;20051;-86
2023/03/21 13:00:28;;;;;;;0.68;0.57;;;10.40;99.90;;;;;;5102070;28;20047;-86
2023/03/21 13:03:07;;;;;;;2.22;1.17;;;10.40;99.90;;;;;;5103224;28;20039;-88
2023/03/21 13:05:47;;;;;;;3.70;1.75;;;10.40;99.90;;;;;;5101978;28;20090;-87
2023/03/21 13:08:22;;;;;;;1.17;0.90;;;10.40;99.90;;;;;;5102302;28;20043;-88
2023/03/21 13:10:48;;;;;;;0.80;0.47;;;10.50;99.90;;;;;;5107133;27;20042;-88
2023/03/21 13:13:35;;;;;;;0.97;0.83;;;10.50;99.90;;;;;;5105036;27;20051;-87
2023/03/21 13:16:07;;;;;;;1.77;1.30;;;10.50;99.90;;;;;;5107212;28;20101;-89
2023/03/21 13:19:04;;;;;;;0.95;0.73;;;10.50;99.90;;;;;;5085340;28;20100;-88
2023/03/21 13:21:58;;;;;;;2.03;1.02;;;10.60;99.90;;;;;;5101954;28;20072;-87